Terminal Aerodrome Forecast
Issued by NWS Duluth, MN

Home | Current Version | Previous Version | Text Only | Print | Product List | Glossary On
Versions: 1 2 3 4 5 6 7 8 9 10 11 12 13 14 15 16 17 18 19 20 21 22 23 24
000
FTUS43 KDLH 171500 AAA
TAFDLH
TAF AMD
KDLH 171505Z 1715/1812 35008KT P6SM SCT040
     FM172000 35006KT P6SM BKN030
     FM180100 VRB03KT P6SM FEW015
     FM181000 00000KT 4SM BR OVC012=

USA.gov is the U.S. government's official web portal to all federal, state and local government web resources and services.